This is the latest recevied weather packets stored in our database for station/object KK7RJD. If no packets are shown the sender has not sent any weather packets the latest 10 day(s).
| Time | Temp. | Humidity | Pressure | Rain* | Wind** | Luminosity | Snow |
|---|---|---|---|---|---|---|---|
| 1778164592 | 10° C | 74% | 1013.6 hPa | 0 mm | - | 94 W/m² | - |
| 1778164289 | 10.56° C | 73% | 1013.7 hPa | 0 mm | - | 77 W/m² | - |
| 1778163682 | 10° C | 70% | 1013.5 hPa | 0 mm | - | 55 W/m² | - |
| 1778163378 | 10° C | 70% | 1013.2 hPa | 0 mm | - | 46 W/m² | - |
| 1778161559 | 9.44° C | 74% | 1013.4 hPa | 0 mm | - | 124 W/m² | - |
| 1778161255 | 8.89° C | 76% | 1013.4 hPa | 0 mm | - | 115 W/m² | - |
| 1778160951 | 8.89° C | 79% | 1013.4 hPa | 0 mm | - | 87 W/m² | - |
| 1778160649 | 8.89° C | 79% | 1013.3 hPa | 0 mm | - | 76 W/m² | - |
| 1778160346 | 8.33° C | 81% | 1013.5 hPa | 0 mm | - | 80 W/m² | - |
| 1778160042 | 8.33° C | 80% | 1013.2 hPa | 0 mm | - | 82 W/m² | - |
| 1778159739 | 8.33° C | 79% | 1013.4 hPa | 0 mm | - | 64 W/m² | - |
| 1778159437 | 8.33° C | 80% | 1013.3 hPa | 0 mm | - | 38 W/m² | - |
| 1778159133 | 8.33° C | 79% | 1013 hPa | 0 mm | - | 17 W/m² | - |
| 1778158832 | 8.33° C | 80% | 1013.3 hPa | 0 mm | - | 15 W/m² | - |
| 1778158529 | 8.33° C | 79% | 1013.4 hPa | 0 mm | - | 12 W/m² | - |
| 1778158227 | 8.33° C | 79% | 1013 hPa | 0 mm | - | 18 W/m² | - |
| 1778157621 | 7.78° C | 81% | 1012.8 hPa | 0 mm | - | 29 W/m² | - |
| 1778157319 | 7.78° C | 81% | 1012.9 hPa | 0 mm | - | 19 W/m² | - |
| 1778157015 | 7.78° C | 80% | 1012.7 hPa | 0 mm | - | 12 W/m² | - |
| 1778156710 | 7.78° C | 79% | 1012.5 hPa | 0 mm | - | 11 W/m² | - |
| 1778156407 | 7.78° C | 78% | 1012.6 hPa | 0 mm | - | 10 W/m² | - |
| 1778156102 | 7.78° C | 78% | 1012.6 hPa | 0 mm | - | 9 W/m² | - |
| 1778155798 | 7.78° C | 78% | 1012.7 hPa | 0 mm | - | 7 W/m² | - |
| 1778155495 | 7.78° C | 78% | 1012.6 hPa | 0 mm | - | 4 W/m² | - |
| 1778155192 | 7.78° C | 78% | 1012.4 hPa | 0 mm | - | 2 W/m² | - |
* Rain latest hour (hover to see other rain measurements)
** Current wind speed in m/s (hover to see current wind gust speed)